CDT,Max TemperatureF,Mean TemperatureF,Min TemperatureF,Max Dew PointF,MeanDew PointF,Min DewpointF,Max Humidity, Mean Humidity, Min Humidity, Max Sea Level PressureIn, Mean Sea Level PressureIn, Min Sea Level PressureIn, Max VisibilityMiles, Mean VisibilityMiles, Min VisibilityMiles, Max Wind SpeedMPH, Mean Wind SpeedMPH, Max Gust SpeedMPH,PrecipitationIn, CloudCover, Events, WindDirDegrees
2013-6-1,64,54,44,57,51,39,100,89,77,29.91,29.69,29.58,10,9,3,20,6,26,0.34,6,Rain-Thunderstorm,64
2013-6-2,60,50,41,46,39,36,93,68,39,30.07,30.01,29.92,10,10,7,14,9,22,0.00,4,,337
2013-6-3,66,54,41,45,40,34,100,61,32,30.10,30.04,30.00,10,10,7,10,2,,0.00,2,Rain,43
2013-6-4,60,55,50,50,44,36,100,71,51,30.15,30.12,30.06,10,10,4,15,6,21,0.07,7,Rain,113
2013-6-5,53,52,50,52,50,48,100,95,88,30.12,30.03,29.97,10,6,2,14,9,21,0.39,8,Rain-Thunderstorm,108
2013-6-6,53,52,50,50,48,46,100,90,82,30.04,30.00,29.97,10,9,4,12,7,,0.01,8,Rain,62
2013-6-7,64,57,50,50,47,41,100,75,42,30.05,30.00,29.95,10,10,2,7,3,,0.00,7,Rain,33
2013-6-8,68,59,50,54,51,48,100,77,56,29.97,29.95,29.93,10,10,10,14,4,18,0.00,4,Thunderstorm,121
2013-6-9,62,58,53,59,52,48,94,87,77,29.97,29.89,29.83,10,9,2,13,8,21,0.37,7,Rain,105
2013-6-10,73,62,51,61,58,52,100,85,57,29.86,29.84,29.82,10,6,0,13,2,,0.00,6,Fog,276
2013-6-11,75,63,51,63,59,52,100,83,57,29.90,29.87,29.84,10,7,0,12,1,,0.00,5,Fog-Thunderstorm,253
2013-6-12,69,64,59,63,59,48,100,81,56,29.94,29.86,29.81,10,8,0,14,4,,0.01,5,Fog-Rain-Thunderstorm,37
2013-6-13,73,63,53,52,49,45,82,61,40,30.12,30.06,29.92,10,10,10,15,9,20,0.00,1,,21
2013-6-14,73,62,51,57,52,48,94,70,50,30.14,30.06,29.94,10,10,7,15,6,21,0.28,2,Rain-Thunderstorm,133
2013-6-15,69,64,59,64,60,55,94,88,73,29.96,29.90,29.84,10,9,0,13,6,17,0.77,6,Rain-Thunderstorm,206
2013-6-16,80,66,51,57,50,43,100,61,26,29.91,29.88,29.84,10,8,0,22,6,29,0.00,2,Fog,268
2013-6-17,71,61,51,55,52,45,100,70,50,30.06,29.94,29.87,10,10,10,15,5,21,0.00,1,,360
2013-6-18,69,58,48,50,43,36,87,58,31,30.13,30.09,30.06,10,10,5,13,6,,0.00,2,,85
2013-6-19,77,65,53,61,53,46,94,66,41,30.12,30.06,30.01,10,10,10,10,4,10,0.00,3,,169
2013-6-20,78,69,60,66,60,55,94,73,57,30.07,30.02,29.97,10,10,10,21,7,25,0.01,3,Rain-Thunderstorm,152
2013-6-21,73,66,60,63,61,59,94,84,69,30.11,29.93,29.75,10,10,2,21,10,26,0.51,6,Rain-Thunderstorm,27
2013-6-22,73,66,60,66,63,59,100,87,73,30.03,29.96,29.88,10,9,3,13,7,21,0.20,6,Rain-Thunderstorm,94
2013-6-23,78,71,64,66,64,63,94,77,57,29.91,29.83,29.74,10,10,7,22,11,29,0.00,4,Rain-Thunderstorm,194
2013-6-24,80,68,57,68,63,55,100,79,54,29.94,29.89,29.84,10,9,0,13,3,17,0.00,2,Fog,198
2013-6-25,80,70,59,66,63,59,100,77,54,29.87,29.83,29.77,10,9,4,13,3,,0.00,1,,146
2013-6-26,78,73,66,72,68,63,100,87,69,29.81,29.74,29.70,10,7,0,18,4,32,0.14,5,Fog-Rain-Thunderstorm,167
2013-6-27,80,70,60,66,59,52,100,71,39,29.85,29.79,29.77,10,9,2,37,7,33,0.32,2,Rain-Thunderstorm,286
2013-6-28,73,66,59,63,59,55,100,86,61,29.79,29.75,29.72,10,9,2,20,9,24,0.20,5,Rain-Thunderstorm,320
2013-6-29,69,62,53,59,52,45,94,69,46,30.00,29.88,29.77,10,10,7,17,9,25,0.00,4,Rain-Thunderstorm,18
2013-6-30,77,64,51,55,48,45,88,57,32,30.13,30.08,30.00,10,10,10,14,6,20,0.00,1,,12